Fiora Topic — V7LK8 — position and weather

sailwx.info

Track history (hours):
 
Tides and Currents Weather Stations Pressure Air Temp Water Temp Dewpoint Dewpoint Depression Visibility Wind Speed Wind Dir Waves Ship Positions

Fiora Topic

Last reported at 2018-Apr-26 10:03 UTC. Time now 2018-May-25 07:01 UTC.
Position S 32°39' E 029°58'.
Warning: this ship's position is 28 days out of date.

Length 180 m; draft 6.2 m.

Type: Cargo ship. MMSI: 538006287.

Date/timePositionNaut miles runAvg speedWind from/ knotsBaromVisibWave heightAir tempDewpointWater temp
2018-Apr-26 10:03S 32°39' E 029°58'111.5
2018-Apr-26 09:59S 32°39' E 029°59'511.4
2018-Apr-26 09:31S 32°36' E 030°04'711.6
2018-Apr-26 08:57S 32°34' E 030°11'512.0
2018-Apr-26 08:30S 32°31' E 030°17'612.3
2018-Apr-26 08:01S 32°29' E 030°24'611.9
2018-Apr-26 07:31S 32°26' E 030°30'611.6
2018-Apr-26 07:01S 32°24' E 030°36'611.7
2018-Apr-26 06:31S 32°21' E 030°42'611.9
2018-Apr-26 06:00S 32°19' E 030°49'612.1
2018-Apr-26 05:31S 32°16' E 030°55'612.1
2018-Apr-26 05:00S 32°13' E 031°01'712.1
2018-Apr-26 04:27S 32°08' E 031°07'512.2
2018-Apr-26 04:00S 32°03' E 031°10'612.2
2018-Apr-26 03:31S 31°58' E 031°14'612.1
2018-Apr-26 03:00S 31°53' E 031°18'712.1
2018-Apr-26 02:27S 31°48' E 031°22'511.9
2018-Apr-26 02:01S 31°44' E 031°26'611.4
2018-Apr-26 01:31S 31°39' E 031°30'611.4
2018-Apr-26 01:01S 31°34' E 031°34'611.3
2018-Apr-26 00:30S 31°29' E 031°37'611.7
2018-Apr-25 23:59S 31°24' E 031°41'611.9
2018-Apr-25 23:30S 31°19' E 031°45'612.1
2018-Apr-25 23:00S 31°14' E 031°49'612.1
2018-Apr-25 22:31S 31°09' E 031°53'812.1
2018-Apr-25 21:50S 31°03' E 031°59'512.1
2018-Apr-25 21:27S 30°59' E 032°02'1012.2
2018-Apr-25 20:39S 30°52' E 032°09'212.4
2018-Apr-25 20:27S 30°50' E 032°10'612.3
2018-Apr-25 19:59S 30°44' E 032°13'612.4
2018-Apr-25 19:31S 30°39' E 032°16'7912.8
2018-Apr-25 13:22S 29°33' E 033°05'513.7
2018-Apr-25 12:59S 29°29' E 033°09'1513.6
2018-Apr-25 11:51S 29°18' E 033°22'513.7
2018-Apr-25 11:29S 29°14' E 033°25'714.3
2018-Apr-25 11:00S 29°09' E 033°30'714.3
2018-Apr-25 10:29S 29°03' E 033°35'813.7
2018-Apr-25 09:53S 28°56' E 033°41'513.4
2018-Apr-25 09:30S 28°52' E 033°44'913.3
2018-Apr-25 08:52S 28°45' E 033°50'  
Track history (hours):
 
Tides and Currents Weather Stations Pressure Air Temp Water Temp Dewpoint Dewpoint Depression Visibility Wind Speed Wind Dir Waves Ship Positions

Fiora Topic

Last reported at 2018-Apr-26 10:03 UTC. Time now 2018-May-25 07:01 UTC.
Position S 32°39' E 029°58'.
Warning: this ship's position is 28 days out of date.

Length 180 m; draft 6.2 m.

Type: Cargo ship. MMSI: 538006287.

Date/timePositionNaut miles runAvg speedWind from/ knotsBaromVisibWave heightAir tempDewpointWater temp
2018-Apr-26 10:03S 32°39' E 029°58'111.5
2018-Apr-26 09:59S 32°39' E 029°59'511.4
2018-Apr-26 09:31S 32°36' E 030°04'711.6
2018-Apr-26 08:57S 32°34' E 030°11'512.0
2018-Apr-26 08:30S 32°31' E 030°17'612.3
2018-Apr-26 08:01S 32°29' E 030°24'611.9
2018-Apr-26 07:31S 32°26' E 030°30'611.6
2018-Apr-26 07:01S 32°24' E 030°36'611.7
2018-Apr-26 06:31S 32°21' E 030°42'611.9
2018-Apr-26 06:00S 32°19' E 030°49'612.1
2018-Apr-26 05:31S 32°16' E 030°55'612.1
2018-Apr-26 05:00S 32°13' E 031°01'712.1
2018-Apr-26 04:27S 32°08' E 031°07'512.2
2018-Apr-26 04:00S 32°03' E 031°10'612.2
2018-Apr-26 03:31S 31°58' E 031°14'612.1
2018-Apr-26 03:00S 31°53' E 031°18'712.1
2018-Apr-26 02:27S 31°48' E 031°22'511.9
2018-Apr-26 02:01S 31°44' E 031°26'611.4
2018-Apr-26 01:31S 31°39' E 031°30'611.4
2018-Apr-26 01:01S 31°34' E 031°34'611.3
2018-Apr-26 00:30S 31°29' E 031°37'611.7
2018-Apr-25 23:59S 31°24' E 031°41'611.9
2018-Apr-25 23:30S 31°19' E 031°45'612.1
2018-Apr-25 23:00S 31°14' E 031°49'612.1
2018-Apr-25 22:31S 31°09' E 031°53'812.1
2018-Apr-25 21:50S 31°03' E 031°59'512.1
2018-Apr-25 21:27S 30°59' E 032°02'1012.2
2018-Apr-25 20:39S 30°52' E 032°09'212.4
2018-Apr-25 20:27S 30°50' E 032°10'612.3
2018-Apr-25 19:59S 30°44' E 032°13'612.4
2018-Apr-25 19:31S 30°39' E 032°16'7912.8
2018-Apr-25 13:22S 29°33' E 033°05'513.7
2018-Apr-25 12:59S 29°29' E 033°09'1513.6
2018-Apr-25 11:51S 29°18' E 033°22'513.7
2018-Apr-25 11:29S 29°14' E 033°25'714.3
2018-Apr-25 11:00S 29°09' E 033°30'714.3
2018-Apr-25 10:29S 29°03' E 033°35'813.7
2018-Apr-25 09:53S 28°56' E 033°41'513.4
2018-Apr-25 09:30S 28°52' E 033°44'913.3
2018-Apr-25 08:52S 28°45' E 033°50'  

Dump ship's entire track history